createdAt,value
2023-04-02T00:01:45.546Z,66.73
2023-04-02T00:05:16.812Z,65.46
2023-04-02T00:08:22.654Z,66.44
2023-04-02T00:11:37.894Z,66.27
2023-04-02T00:14:40.135Z,67.70
2023-04-02T00:17:42.114Z,68.11
2023-04-02T00:21:19.166Z,68.69
2023-04-02T00:24:22.408Z,67.63
2023-04-02T00:27:24.599Z,67.80
2023-04-02T00:30:26.967Z,69.37
2023-04-02T00:33:31.710Z,68.45
2023-04-02T00:36:35.152Z,68.07
2023-04-02T00:39:41.698Z,67.69
2023-04-02T00:42:45.116Z,68.10
2023-04-02T00:45:51.240Z,68.00
2023-04-02T00:48:56.493Z,67.57
2023-04-02T00:52:21.633Z,68.88
2023-04-02T00:55:50.646Z,68.23
2023-04-02T00:58:55.118Z,68.60
2023-04-02T01:02:22.697Z,69.66
2023-04-02T01:05:25.048Z,68.72
2023-04-02T01:08:56.814Z,69.66
2023-04-02T01:12:13.918Z,68.82
2023-04-02T01:15:21.644Z,69.38
2023-04-02T01:18:53.675Z,68.40
2023-04-02T01:22:14.430Z,68.11
2023-04-02T01:25:35.894Z,68.03
2023-04-02T01:29:10.856Z,69.26
2023-04-02T01:32:17.002Z,69.57
2023-04-02T01:35:19.366Z,70.12
2023-04-02T01:38:29.991Z,68.41
2023-04-02T01:41:48.082Z,69.28
2023-04-02T01:45:00.922Z,69.07
2023-04-02T01:48:12.966Z,70.02
2023-04-02T01:51:35.300Z,69.90
2023-04-02T01:54:41.880Z,69.38
2023-04-02T01:57:50.078Z,68.83
2023-04-02T02:01:02.904Z,69.20
2023-04-02T02:04:07.508Z,69.18
2023-04-02T02:07:18.804Z,69.67
2023-04-02T02:10:28.903Z,69.78
2023-04-02T02:13:32.177Z,69.54
2023-04-02T02:16:42.383Z,69.31
2023-04-02T02:19:52.224Z,70.42
2023-04-02T02:22:56.549Z,69.45
2023-04-02T02:25:59.021Z,69.59
2023-04-02T02:29:04.232Z,70.07
2023-04-02T02:32:09.821Z,69.53
2023-04-02T02:35:21.945Z,69.35
2023-04-02T02:38:34.770Z,69.83
2023-04-02T02:41:50.441Z,70.41
2023-04-02T02:44:55.957Z,69.56
2023-04-02T02:47:59.921Z,70.54
2023-04-02T02:51:08.028Z,69.89
2023-04-02T02:54:10.672Z,69.73
2023-04-02T02:57:20.853Z,69.68
2023-04-02T03:00:25.472Z,70.33
2023-04-02T03:03:32.826Z,70.84
2023-04-02T03:06:37.178Z,71.09
2023-04-02T03:10:06.416Z,71.65
2023-04-02T03:13:23.435Z,71.58
2023-04-02T03:16:36.934Z,71.72
2023-04-02T03:19:53.534Z,72.32
2023-04-02T03:23:22.324Z,72.72
2023-04-02T03:27:02.297Z,71.80
2023-04-02T03:30:28.874Z,71.44
2023-04-02T03:34:00.217Z,73.17
2023-04-02T03:37:21.568Z,73.81
2023-04-02T03:40:34.107Z,73.56
2023-04-02T03:43:47.232Z,74.34
2023-04-02T03:46:57.837Z,74.07
2023-04-02T03:50:15.098Z,73.00
2023-04-02T03:53:17.375Z,74.05
2023-04-02T03:56:27.691Z,72.50
2023-04-02T03:59:41.726Z,72.41
2023-04-02T04:02:50.884Z,73.11
2023-04-02T04:06:05.925Z,74.09
2023-04-02T04:09:10.291Z,72.46
2023-04-02T04:12:32.912Z,71.85
2023-04-02T04:15:42.252Z,72.15
2023-04-02T04:18:53.150Z,73.08
2023-04-02T04:22:15.386Z,71.84
2023-04-02T04:25:33.940Z,73.33
2023-04-02T04:28:58.674Z,72.87
2023-04-02T04:32:32.595Z,73.15
2023-04-02T04:35:48.577Z,73.47
2023-04-02T04:38:55.832Z,72.50
2023-04-02T04:42:02.853Z,73.46
2023-04-02T04:45:24.057Z,73.77
2023-04-02T04:48:48.380Z,73.79
2023-04-02T04:52:14.854Z,73.93
2023-04-02T04:55:38.860Z,73.41
2023-04-02T04:58:48.796Z,72.65
2023-04-02T05:02:27.302Z,73.21
2023-04-02T05:05:34.148Z,72.50
2023-04-02T05:08:44.607Z,71.66
2023-04-02T05:11:55.879Z,72.43
2023-04-02T05:15:04.714Z,72.88
2023-04-02T05:18:33.223Z,72.19
2023-04-02T05:21:49.842Z,71.94
2023-04-02T05:25:27.542Z,72.17
2023-04-02T05:28:47.663Z,72.30
2023-04-02T05:32:13.970Z,72.39
2023-04-02T05:35:22.878Z,73.17
2023-04-02T05:38:32.357Z,73.72
2023-04-02T05:41:43.292Z,73.62
2023-04-02T05:45:23.369Z,73.69
2023-04-02T05:48:35.554Z,73.84
2023-04-02T05:51:50.519Z,74.41
2023-04-02T05:54:58.838Z,74.60
2023-04-02T06:01:56.340Z,72.51
2023-04-02T06:05:13.777Z,71.59
2023-04-02T06:08:22.884Z,74.03
2023-04-02T06:11:37.260Z,73.44
2023-04-02T06:14:40.165Z,72.55
2023-04-02T06:17:51.577Z,74.01
2023-04-02T06:20:54.976Z,73.73
2023-04-02T06:24:02.592Z,73.35
2023-04-02T06:27:09.034Z,73.14
2023-04-02T06:30:19.384Z,73.67
2023-04-02T06:33:24.141Z,74.21
2023-04-02T06:36:28.735Z,74.27
2023-04-02T06:39:36.453Z,73.94
2023-04-02T06:42:44.517Z,76.02
2023-04-02T06:46:35.768Z,76.03
2023-04-02T06:49:59.418Z,72.83
2023-04-02T06:53:08.572Z,73.15
2023-04-02T06:56:43.533Z,73.96
2023-04-02T06:59:49.181Z,74.51
2023-04-02T07:02:56.429Z,74.62
2023-04-02T07:06:02.268Z,71.88
2023-04-02T07:09:05.510Z,72.72
2023-04-02T07:12:15.593Z,72.94
2023-04-02T07:15:20.344Z,73.19
2023-04-02T07:18:25.303Z,72.45
2023-04-02T07:21:27.923Z,71.48
2023-04-02T07:24:30.917Z,71.60
2023-04-02T07:27:32.879Z,72.20
2023-04-02T07:30:35.609Z,72.54
2023-04-02T07:33:37.693Z,70.19
2023-04-02T07:36:39.772Z,70.97
2023-04-02T07:39:42.465Z,71.85
2023-04-02T07:42:45.493Z,71.84
2023-04-02T07:45:47.653Z,71.12
2023-04-02T07:48:49.750Z,70.21
2023-04-02T07:51:52.761Z,68.54
2023-04-02T07:54:55.245Z,71.20
2023-04-02T07:57:59.835Z,70.69
2023-04-02T08:01:03.911Z,70.42
2023-04-02T08:04:08.542Z,71.88
2023-04-02T08:07:11.055Z,71.00
2023-04-02T08:10:13.389Z,71.71
2023-04-02T08:13:16.724Z,71.58
2023-04-02T08:16:18.857Z,71.12
2023-04-02T08:19:21.113Z,72.95
2023-04-02T08:22:23.164Z,73.03
2023-04-02T08:25:25.232Z,71.87
2023-04-02T08:28:27.297Z,71.95
2023-04-02T08:31:30.609Z,73.10
2023-04-02T08:34:32.727Z,75.06
2023-04-02T08:37:34.826Z,74.64
2023-04-02T08:40:39.830Z,74.23
2023-04-02T08:44:07.268Z,74.18
2023-04-02T08:47:11.110Z,74.76
2023-04-02T08:50:30.391Z,73.07
2023-04-02T08:53:39.376Z,74.24
2023-04-02T08:56:48.264Z,71.06
2023-04-02T08:59:57.223Z,72.32
2023-04-02T09:03:06.901Z,72.02
2023-04-02T09:06:14.698Z,72.60
2023-04-02T09:09:18.780Z,72.99
2023-04-02T09:12:26.449Z,71.79
2023-04-02T09:15:36.187Z,72.83
2023-04-02T09:18:39.683Z,73.59
2023-04-02T09:21:53.140Z,73.50
2023-04-02T09:24:57.666Z,71.20
2023-04-02T09:28:06.407Z,72.06
2023-04-02T09:31:43.559Z,71.28
2023-04-02T09:34:45.905Z,73.45
2023-04-02T09:37:48.510Z,72.71
2023-04-02T09:40:55.898Z,74.45
2023-04-02T09:44:27.378Z,75.96
2023-04-02T09:47:32.342Z,75.08
2023-04-02T09:50:35.037Z,73.53
2023-04-02T09:53:42.303Z,75.46
2023-04-02T09:57:04.878Z,75.15
2023-04-02T10:00:32.171Z,77.31
2023-04-02T10:03:35.284Z,77.30
2023-04-02T10:06:37.604Z,78.03
2023-04-02T10:09:39.745Z,78.70
2023-04-02T10:12:44.101Z,77.90
2023-04-02T10:15:54.490Z,77.40
2023-04-02T10:19:07.294Z,76.18
2023-04-02T10:22:23.203Z,76.02
2023-04-02T10:25:31.342Z,76.58
2023-04-02T10:29:08.770Z,74.24
2023-04-02T10:32:13.584Z,74.24
2023-04-02T10:35:33.391Z,74.69
2023-04-02T10:38:51.415Z,77.17
2023-04-02T10:42:00.914Z,74.58
2023-04-02T10:45:14.056Z,75.88
2023-04-02T10:48:34.171Z,75.07
2023-04-02T10:51:44.822Z,75.02
2023-04-02T10:54:59.279Z,72.78
2023-04-02T10:58:08.081Z,71.62
2023-04-02T11:01:17.896Z,72.86
2023-04-02T11:04:45.227Z,72.93
2023-04-02T11:11:19.526Z,72.43
2023-04-02T11:14:26.587Z,67.89
2023-04-02T11:17:29.122Z,70.22
2023-04-02T11:20:49.402Z,69.02
2023-04-02T11:23:59.051Z,69.13
2023-04-02T11:27:10.031Z,70.32
2023-04-02T11:30:18.969Z,70.05
2023-04-02T11:33:38.121Z,69.04
2023-04-02T11:36:51.073Z,70.63
2023-04-02T11:39:58.488Z,69.30
2023-04-02T11:43:37.173Z,70.62
2023-04-02T11:46:41.691Z,69.89
2023-04-02T11:50:04.648Z,69.87
2023-04-02T11:53:13.188Z,69.41
2023-04-02T11:56:43.561Z,70.29
2023-04-02T11:59:58.650Z,69.56
2023-04-02T12:03:26.145Z,70.90
2023-04-02T12:06:49.779Z,72.18
2023-04-02T12:09:55.682Z,71.77
2023-04-02T12:12:57.949Z,71.81
2023-04-02T12:16:00.086Z,74.81
2023-04-02T12:19:08.314Z,75.38
2023-04-02T12:22:20.553Z,76.70
2023-04-02T12:25:41.382Z,78.19
2023-04-02T12:28:47.002Z,77.96
2023-04-02T12:31:49.457Z,75.83
2023-04-02T12:34:53.696Z,79.19
2023-04-02T12:37:57.462Z,76.03
2023-04-02T12:41:18.951Z,77.40
2023-04-02T12:44:24.124Z,77.78
2023-04-02T12:47:27.342Z,77.70
2023-04-02T12:50:29.761Z,77.39
2023-04-02T12:53:36.586Z,78.07
2023-04-02T12:56:39.082Z,79.01
2023-04-02T12:59:43.238Z,78.86
2023-04-02T13:02:48.426Z,78.76
2023-04-02T13:05:56.431Z,79.56
2023-04-02T13:09:00.575Z,81.06
2023-04-02T13:12:04.012Z,80.89
2023-04-02T13:15:09.248Z,81.72
2023-04-02T13:18:14.445Z,81.87
2023-04-02T13:21:19.765Z,81.94
2023-04-02T13:24:24.741Z,81.82
2023-04-02T13:27:26.979Z,79.02
2023-04-02T13:30:29.518Z,79.73
2023-04-02T13:33:31.930Z,81.41
2023-04-02T13:36:34.153Z,81.43
2023-04-02T13:39:36.259Z,81.96
2023-04-02T13:42:39.172Z,81.32
2023-04-02T13:45:43.044Z,81.71
2023-04-02T13:48:45.046Z,80.24
2023-04-02T13:51:58.439Z,81.06
2023-04-02T13:55:01.851Z,79.61
2023-04-02T13:58:05.319Z,80.44
2023-04-02T14:01:08.001Z,81.61
2023-04-02T14:04:14.282Z,79.92
2023-04-02T14:07:34.716Z,81.16
2023-04-02T14:11:17.772Z,79.28
2023-04-02T14:14:29.416Z,79.12
2023-04-02T14:17:55.702Z,79.44
2023-04-02T14:21:12.530Z,79.49
2023-04-02T14:24:26.878Z,79.56
2023-04-02T14:27:53.833Z,78.23
2023-04-02T14:31:07.190Z,77.96
2023-04-02T14:34:42.128Z,78.07
2023-04-02T14:38:37.730Z,79.10
2023-04-02T14:41:58.450Z,79.51
2023-04-02T14:45:33.932Z,80.55
2023-04-02T14:48:46.558Z,80.20
2023-04-02T14:52:05.420Z,80.21
2023-04-02T14:55:40.933Z,80.81
2023-04-02T14:58:48.701Z,80.03
2023-04-02T15:01:59.028Z,79.81
2023-04-02T15:05:12.364Z,80.12
2023-04-02T15:08:52.364Z,80.84
2023-04-02T15:12:18.002Z,80.66
2023-04-02T15:15:40.584Z,81.41
2023-04-02T15:18:43.887Z,81.27
2023-04-02T15:21:59.864Z,78.80
2023-04-02T15:25:16.869Z,79.55
2023-04-02T15:28:38.821Z,79.44
2023-04-02T15:31:46.796Z,78.74
2023-04-02T15:34:59.314Z,78.48
2023-04-02T15:38:19.878Z,79.58
2023-04-02T15:41:47.717Z,80.01
2023-04-02T15:45:42.733Z,80.20
2023-04-02T15:49:09.758Z,80.36
2023-04-02T15:52:33.507Z,80.11
2023-04-02T15:56:16.981Z,80.34
2023-04-02T15:59:41.118Z,80.74
2023-04-02T16:03:04.940Z,81.13
2023-04-02T16:06:27.246Z,80.89
2023-04-02T16:09:43.242Z,77.78
2023-04-02T16:12:45.957Z,78.25
2023-04-02T16:16:00.296Z,77.41
2023-04-02T16:19:15.992Z,78.09
2023-04-02T16:22:34.342Z,76.49
2023-04-02T16:25:49.171Z,75.13
2023-04-02T16:29:23.793Z,75.00
2023-04-02T16:32:48.508Z,75.30
2023-04-02T16:36:36.213Z,76.96
2023-04-02T16:40:08.239Z,73.76
2023-04-02T16:43:20.184Z,74.00
2023-04-02T16:46:57.309Z,73.07
2023-04-02T16:50:19.808Z,72.48
2023-04-02T16:53:50.973Z,72.54
2023-04-02T16:57:38.495Z,72.47
2023-04-02T17:01:06.386Z,73.14
2023-04-02T17:04:18.321Z,72.84
2023-04-02T17:07:48.426Z,72.81
2023-04-02T17:10:53.681Z,72.34
2023-04-02T17:14:14.079Z,71.92
2023-04-02T17:17:18.103Z,72.79
2023-04-02T17:20:24.596Z,73.32
2023-04-02T17:23:31.970Z,73.26
2023-04-02T17:26:38.791Z,73.41
2023-04-02T17:29:46.068Z,73.82
2023-04-02T17:32:49.378Z,71.33
2023-04-02T17:36:16.275Z,69.34
2023-04-02T17:40:11.843Z,69.31
2023-04-02T17:43:48.128Z,69.12
2023-04-02T17:47:15.936Z,66.53
2023-04-02T17:50:22.070Z,68.67
2023-04-02T17:53:51.937Z,69.20
2023-04-02T17:57:27.959Z,67.57
2023-04-02T18:00:59.241Z,68.64
2023-04-02T18:04:29.274Z,68.21
2023-04-02T18:08:02.327Z,67.28
2023-04-02T18:11:15.892Z,66.62
2023-04-02T18:14:31.612Z,66.11
2023-04-02T18:17:46.842Z,67.25
2023-04-02T18:21:17.522Z,67.15
2023-04-02T18:24:48.159Z,66.54
2023-04-02T18:28:38.103Z,67.64
2023-04-02T18:31:53.210Z,68.93
2023-04-02T18:35:06.223Z,67.20
2023-04-02T18:38:44.114Z,66.72
2023-04-02T18:42:00.002Z,66.67
2023-04-02T18:45:33.983Z,66.82
2023-04-02T18:49:19.179Z,67.31
2023-04-02T18:52:23.947Z,67.16
2023-04-02T18:55:32.982Z,67.24
2023-04-02T18:58:59.307Z,66.84
2023-04-02T19:02:34.006Z,66.72
2023-04-02T19:05:53.083Z,64.63
2023-04-02T19:09:03.684Z,65.39
2023-04-02T19:12:26.999Z,65.84
2023-04-02T19:16:08.241Z,66.02
2023-04-02T19:19:38.834Z,65.17
2023-04-02T19:23:30.607Z,65.88
2023-04-02T19:27:05.429Z,67.39
2023-04-02T19:30:36.097Z,67.02
2023-04-02T19:33:53.376Z,63.75
2023-04-02T19:37:18.844Z,65.58
2023-04-02T19:40:29.878Z,65.02
2023-04-02T19:43:33.096Z,66.71
2023-04-02T19:46:37.025Z,64.97
2023-04-02T19:49:40.336Z,65.32
2023-04-02T19:52:43.726Z,64.11
2023-04-02T19:55:52.386Z,63.84
2023-04-02T19:59:02.416Z,64.05
2023-04-02T20:02:11.751Z,64.91
2023-04-02T20:05:15.401Z,64.83
2023-04-02T20:08:19.178Z,63.42
2023-04-02T20:11:22.334Z,63.58
2023-04-02T20:14:25.581Z,63.91
2023-04-02T20:17:29.057Z,64.14
2023-04-02T20:20:31.734Z,63.03
2023-04-02T20:23:35.101Z,63.68
2023-04-02T20:26:40.439Z,63.38
2023-04-02T20:29:43.757Z,62.09
2023-04-02T20:32:46.188Z,63.86
2023-04-02T20:35:52.329Z,62.80
2023-04-02T20:38:57.952Z,63.71
2023-04-02T20:42:03.065Z,64.28
2023-04-02T20:45:06.799Z,64.61
2023-04-02T20:48:09.189Z,63.74
2023-04-02T20:51:15.914Z,64.75
2023-04-02T20:54:17.968Z,63.19
2023-04-02T20:57:22.048Z,64.20
2023-04-02T21:00:24.221Z,64.08
2023-04-02T21:03:26.251Z,63.87
2023-04-02T21:06:31.882Z,64.08
2023-04-02T21:09:33.866Z,65.11
2023-04-02T21:12:36.008Z,65.54
2023-04-02T21:15:43.137Z,66.09
2023-04-02T21:18:46.864Z,64.55
2023-04-02T21:21:48.949Z,65.74
2023-04-02T21:24:51.472Z,66.59
2023-04-02T21:27:53.471Z,67.37
2023-04-02T21:31:13.674Z,67.04
2023-04-02T21:34:17.157Z,67.30
2023-04-02T21:37:19.137Z,67.95
2023-04-02T21:40:21.209Z,68.22
2023-04-02T21:43:23.210Z,66.53
2023-04-02T21:46:31.349Z,67.60
2023-04-02T21:49:33.337Z,68.03
2023-04-02T21:52:35.392Z,66.92
2023-04-02T21:55:37.384Z,67.65
2023-04-02T21:58:39.589Z,68.21
2023-04-02T22:01:48.431Z,67.76
2023-04-02T22:04:52.113Z,68.95
2023-04-02T22:07:54.321Z,67.85
2023-04-02T22:10:56.549Z,68.48
2023-04-02T22:13:59.108Z,67.55
2023-04-02T22:17:01.585Z,68.44
2023-04-02T22:20:05.093Z,68.34
2023-04-02T22:23:07.160Z,67.69
2023-04-02T22:26:10.771Z,66.78
2023-04-02T22:29:12.850Z,66.84
2023-04-02T22:32:14.991Z,68.43
2023-04-02T22:35:17.423Z,68.08
2023-04-02T22:38:19.568Z,68.66
2023-04-02T22:41:25.778Z,67.80
2023-04-02T22:44:27.881Z,67.07
2023-04-02T22:47:29.877Z,67.95
2023-04-02T22:50:32.222Z,68.95
2023-04-02T22:53:35.098Z,68.54
2023-04-02T22:56:37.828Z,69.08
2023-04-02T22:59:39.848Z,68.74
2023-04-02T23:02:41.998Z,66.61
2023-04-02T23:05:46.227Z,67.24
2023-04-02T23:08:48.402Z,67.68
2023-04-02T23:11:50.600Z,68.85
2023-04-02T23:14:53.414Z,67.70
2023-04-02T23:17:55.780Z,66.11
2023-04-02T23:20:58.164Z,68.67
2023-04-02T23:24:00.399Z,67.44
2023-04-02T23:27:02.536Z,67.86
2023-04-02T23:30:05.561Z,67.44
2023-04-02T23:33:07.682Z,67.67
2023-04-02T23:36:13.734Z,68.24
2023-04-02T23:39:17.208Z,67.41
2023-04-02T23:42:19.250Z,68.12
2023-04-02T23:45:21.242Z,66.57
2023-04-02T23:48:23.322Z,67.34
2023-04-02T23:51:26.770Z,67.10
2023-04-02T23:54:28.801Z,67.43
2023-04-02T23:57:31.050Z,68.28
